Waukesha, WI

1:01 PM CDT on September 30, 2016 (GMT -0500)
WIDOT | | Change Station

Elev 820 ft 43.05 °N, 88.20 °W | Updated 8 days ago

Cloudy
Cloudy
59 °F
Feels Like 59 °F
N
12
Wind Variable Wind from NE
Gusts 17 mph

Today
High -- | Low -- °F
--% Chance of Precip.
Yesterday
High -- | Low -- °F
Precip. -- in
Pressure 30.20 in
Visibility 5.0 miles
Clouds Overcast 500 ft
Dew Point 55 °F
Humidity 88%
Rainfall in
Snow Depth Not available.
6:49 AM 6:34 PM
Waning Crescent, 0% visible
METAR KUES 301745Z 04008G14KT 5SM BR OVC005 14/14 A3020
Pressure 30.20 in
Visibility 5.0 miles
Clouds Overcast 500 ft
Dew Point 55 °F
Humidity 88%
Rainfall in
Snow Depth Not available.
6:49 AM 6:34 PM
Waning Crescent, 0% visible
METAR KUES 301745Z 04008G14KT 5SM BR OVC005 14/14 A3020

10-Day Weather Forecast

Almanac

Astronomy

Sep. 30, 2016 Rise Set
Actual Time
Civil Twilight
Nautical Twilight
Astronomical Twilight
Moon
Length of Visible Light
Length of Day
Tomorrow will be .
, % of the Moon is Illuminated

Today's Extremes

State Highs State Lows

Community

WunderPhotos

Upload Photos

1,942,760 photos uploaded!

WunderBlog® & News

Nearby

Air Quality

  Air Quality AQ Index Pollutant
Not available.

Snow Depth

Station Depth Elevation

Earthquake Activity

City Distance Mag. Time & Date
Minimum magnitude displayed is 2.5.

Coastal Water Temperatures

Place Temperature

Stations

Nearby Weather Stations

Station Location Temp. Windchill Dew Point Humidity Wind Precip. Elev Updated Type
                   

Watches & Warnings

There are currently no watches in effect.